createdAt,value
2023-01-05T05:16:38.303Z,100329.47
2023-01-05T05:19:06.663Z,100323.75
2023-01-05T05:21:33.198Z,100336.88
2023-01-05T05:23:59.722Z,100335.03
2023-01-05T05:26:26.790Z,100345.16
2023-01-05T05:28:54.293Z,100342.84
2023-01-05T05:31:20.793Z,100326.00
2023-01-05T05:33:47.299Z,100323.78
2023-01-05T05:36:33.607Z,100321.00
2023-01-05T05:39:00.340Z,100330.94
2023-01-05T05:41:27.187Z,100329.44
2023-01-05T05:43:53.983Z,100334.03
2023-01-05T05:46:20.583Z,100338.75
2023-01-05T05:48:50.064Z,100343.69
2023-01-05T05:51:16.594Z,100345.69
2023-01-05T05:53:43.331Z,100337.72
2023-01-05T05:56:09.877Z,100349.56
2023-01-05T05:58:36.336Z,100334.06
2023-01-05T06:01:02.897Z,100342.59
2023-01-05T06:03:29.500Z,100345.00
2023-01-05T06:05:55.969Z,100356.38
2023-01-05T06:08:24.051Z,100360.13
2023-01-05T06:10:50.930Z,100365.41
2023-01-05T06:13:17.841Z,100366.72
2023-01-05T06:15:44.428Z,100375.63
2023-01-05T06:18:10.886Z,100366.03
2023-01-05T06:20:37.473Z,100375.50
2023-01-05T06:23:04.411Z,100363.53
2023-01-05T06:25:31.010Z,100368.81
2023-01-05T06:27:57.582Z,100364.19
2023-01-05T06:30:24.185Z,100367.44
2023-01-05T06:32:50.666Z,100381.06
2023-01-05T06:35:17.541Z,100379.72
2023-01-05T06:37:44.321Z,100391.50
2023-01-05T06:40:13.458Z,100391.69
2023-01-05T06:42:40.784Z,100388.22
2023-01-05T06:45:13.212Z,100392.31
2023-01-05T06:47:40.139Z,100397.28
2023-01-05T06:50:07.165Z,100399.75
2023-01-05T06:52:36.756Z,100397.94
2023-01-05T06:55:04.573Z,100396.09
2023-01-05T06:57:36.601Z,100399.47
2023-01-05T07:00:09.024Z,100408.03
2023-01-05T07:02:38.949Z,100412.53
2023-01-05T07:05:06.421Z,100411.78
2023-01-05T07:07:33.494Z,100415.63
2023-01-05T07:10:00.232Z,100416.91
2023-01-05T07:12:26.984Z,100417.53
2023-01-05T07:14:57.472Z,100421.97
2023-01-05T07:17:24.987Z,100424.34
2023-01-05T07:19:51.595Z,100413.31
2023-01-05T07:22:18.136Z,100413.16
2023-01-05T07:24:44.735Z,100423.72
2023-01-05T07:27:12.231Z,100428.06
2023-01-05T07:29:38.831Z,100432.78
2023-01-05T07:32:05.734Z,100437.81
2023-01-05T07:34:32.349Z,100441.50
2023-01-05T07:36:58.875Z,100434.69
2023-01-05T07:39:25.513Z,100452.28
2023-01-05T07:42:00.952Z,100448.22
2023-01-05T07:44:27.590Z,100448.00
2023-01-05T07:46:54.140Z,100458.22
2023-01-05T07:49:49.967Z,100463.22
2023-01-05T07:52:21.391Z,100464.03
2023-01-05T07:54:51.202Z,100473.69
2023-01-05T07:57:17.954Z,100475.25
2023-01-05T07:59:44.943Z,100478.47
2023-01-05T08:02:12.261Z,100472.25
2023-01-05T08:04:39.188Z,100485.19
2023-01-05T08:07:11.167Z,100473.19
2023-01-05T08:09:57.445Z,100496.63
2023-01-05T08:12:24.003Z,100489.47
2023-01-05T08:14:50.464Z,100496.03
2023-01-05T08:17:17.154Z,100508.81
2023-01-05T08:19:43.658Z,100506.97
2023-01-05T08:22:10.191Z,100504.88
2023-01-05T08:24:36.714Z,100512.03
2023-01-05T08:27:04.086Z,100513.03
2023-01-05T08:29:31.122Z,100516.91
2023-01-05T08:31:57.653Z,100510.16
2023-01-05T08:34:25.819Z,100511.66
2023-01-05T08:36:55.288Z,100519.13
2023-01-05T08:39:21.839Z,100518.13
2023-01-05T08:41:48.568Z,100520.41
2023-01-05T08:44:15.602Z,100527.88
2023-01-05T08:46:42.178Z,100532.19
2023-01-05T08:49:09.758Z,100529.00
2023-01-05T08:51:37.417Z,100531.31
2023-01-05T08:54:04.239Z,100523.75
2023-01-05T08:56:38.093Z,100529.34
2023-01-05T08:59:05.818Z,100533.38
2023-01-05T09:01:32.620Z,100533.09
2023-01-05T09:03:59.186Z,100539.06
2023-01-05T09:06:25.796Z,100544.31
2023-01-05T09:08:52.305Z,100545.13
2023-01-05T09:11:22.072Z,100548.38
2023-01-05T09:13:54.116Z,100547.75
2023-01-05T09:19:10.866Z,100543.38
2023-01-05T09:21:39.506Z,100542.19
2023-01-05T09:24:07.528Z,100546.09
2023-01-05T09:26:34.269Z,100559.88
2023-01-05T09:29:00.974Z,100550.09
2023-01-05T09:31:27.779Z,100556.69
2023-01-05T09:33:54.500Z,100553.78
2023-01-05T09:36:21.030Z,100557.91
2023-01-05T09:38:54.387Z,100560.03
2023-01-05T09:41:22.992Z,100559.13
2023-01-05T09:43:54.642Z,100563.53
2023-01-05T09:46:25.269Z,100562.22
2023-01-05T09:48:55.701Z,100565.72
2023-01-05T09:51:22.419Z,100570.91
2023-01-05T09:53:49.278Z,100566.94
2023-01-05T09:59:36.351Z,100581.53
2023-01-05T10:02:37.452Z,100576.63
2023-01-05T10:05:06.024Z,100606.38
2023-01-05T10:07:53.600Z,100584.34
2023-01-05T10:14:53.128Z,100593.19
2023-01-05T10:17:43.555Z,100599.19
2023-01-05T10:20:46.731Z,100598.94
2023-01-05T10:23:26.399Z,100608.03
2023-01-05T10:36:00.719Z,100600.72
2023-01-05T10:41:39.979Z,100593.38
2023-01-05T10:44:58.387Z,100599.16
2023-01-05T10:47:26.146Z,100613.19
2023-01-05T10:49:54.462Z,100607.91
2023-01-05T10:52:22.813Z,100611.75
2023-01-05T10:55:31.248Z,100602.59
2023-01-05T10:58:27.467Z,100596.31
2023-01-05T11:01:44.416Z,100605.50
2023-01-05T11:08:32.257Z,100614.31
2023-01-05T11:11:04.314Z,100605.72
2023-01-05T11:14:05.525Z,100610.09
2023-01-05T11:16:35.786Z,100616.03
2023-01-05T11:19:12.602Z,100619.06
2023-01-05T11:21:41.793Z,100613.31
2023-01-05T11:25:14.775Z,100619.53
2023-01-05T11:29:08.310Z,100626.09
2023-01-05T11:31:53.601Z,100617.19
2023-01-05T11:34:39.429Z,100623.72
2023-01-05T11:37:10.144Z,100620.31
2023-01-05T11:43:27.912Z,100623.41
2023-01-05T11:46:07.024Z,100623.91
2023-01-05T11:48:42.101Z,100619.97
2023-01-05T11:51:34.457Z,100626.19
2023-01-05T11:54:34.999Z,100625.94
2023-01-05T11:58:01.252Z,100623.59
2023-01-05T12:01:21.614Z,100627.44
2023-01-05T12:04:19.172Z,100621.94
2023-01-05T12:07:40.783Z,100632.34
2023-01-05T12:10:49.679Z,100631.06
2023-01-05T12:14:14.332Z,100624.78
2023-01-05T12:17:34.513Z,100621.03
2023-01-05T12:20:33.201Z,100613.56
2023-01-05T12:23:29.111Z,100612.22
2023-01-05T12:27:07.728Z,100623.66
2023-01-05T12:45:10.440Z,100620.31
2023-01-05T12:47:59.478Z,100626.31
2023-01-05T12:50:33.869Z,100620.69
2023-01-05T12:53:18.083Z,100634.97
2023-01-05T12:55:55.850Z,100637.53
2023-01-05T12:58:32.256Z,100631.16
2023-01-05T13:01:01.060Z,100635.78
2023-01-05T13:03:39.655Z,100645.56
2023-01-05T13:06:17.982Z,100636.44
2023-01-05T13:08:52.070Z,100642.16
2023-01-05T13:11:31.099Z,100645.53
2023-01-05T13:14:27.303Z,100642.19
2023-01-05T13:17:00.858Z,100639.69
2023-01-05T13:19:44.726Z,100641.13
2023-01-05T13:22:19.934Z,100636.72
2023-01-05T13:24:53.001Z,100635.50
2023-01-05T13:27:19.588Z,100632.19
2023-01-05T13:29:54.315Z,100650.75
2023-01-05T13:32:49.331Z,100644.69
2023-01-05T13:35:49.094Z,100635.66
2023-01-05T13:38:31.314Z,100640.59
2023-01-05T13:41:25.936Z,100639.38
2023-01-05T13:44:33.820Z,100642.38
2023-01-05T13:47:10.401Z,100638.03
2023-01-05T13:50:18.390Z,100647.56
2023-01-05T13:53:18.389Z,100647.22
2023-01-05T13:56:05.918Z,100643.06
2023-01-05T13:59:24.406Z,100648.09
2023-01-05T14:02:00.700Z,100646.50
2023-01-05T14:04:32.760Z,100642.75
2023-01-05T14:07:15.743Z,100647.25
2023-01-05T14:09:57.269Z,100656.44
2023-01-05T14:12:25.623Z,100661.13
2023-01-05T14:15:12.363Z,100663.09
2023-01-05T14:18:02.321Z,100670.22
2023-01-05T14:20:35.327Z,100671.41
2023-01-05T14:23:30.557Z,100676.47
2023-01-05T14:25:57.860Z,100671.41
2023-01-05T14:28:30.936Z,100679.69
2023-01-05T14:31:17.533Z,100671.84
2023-01-05T14:33:59.510Z,100674.59
2023-01-05T14:36:44.499Z,100677.84
2023-01-05T14:39:18.157Z,100679.50
2023-01-05T14:42:05.594Z,100690.91
2023-01-05T14:44:51.927Z,100693.78
2023-01-05T14:47:41.270Z,100690.97
2023-01-05T14:50:35.101Z,100693.69
2023-01-05T14:53:10.145Z,100694.16
2023-01-05T14:55:52.165Z,100703.88
2023-01-05T14:58:37.037Z,100698.81
2023-01-05T15:01:16.860Z,100711.91
2023-01-05T15:04:31.579Z,100709.16
2023-01-05T15:07:26.472Z,100709.31
2023-01-05T15:10:36.799Z,100721.16
2023-01-05T15:17:09.689Z,100720.72
2023-01-05T15:20:05.302Z,100720.72
2023-01-05T15:23:00.563Z,100724.63
2023-01-05T15:25:57.847Z,100715.56
2023-01-05T15:28:48.856Z,100713.47
2023-01-05T15:31:49.624Z,100727.41
2023-01-05T15:34:54.179Z,100725.03
2023-01-05T15:37:25.330Z,100722.00
2023-01-05T15:39:57.583Z,100720.63
2023-01-05T15:42:43.839Z,100722.59
2023-01-05T15:49:28.950Z,100726.03
2023-01-05T15:55:35.715Z,100724.38
2023-01-05T15:58:16.187Z,100720.88
2023-01-05T16:00:46.344Z,100722.41
2023-01-05T16:03:28.501Z,100726.53
2023-01-05T16:06:29.052Z,100725.72
2023-01-05T16:09:30.053Z,100722.78
2023-01-05T16:12:26.483Z,100723.72
2023-01-05T16:15:04.671Z,100744.41
2023-01-05T16:18:12.115Z,100732.34
2023-01-05T16:21:00.532Z,100733.28
2023-01-05T16:23:55.854Z,100730.63
2023-01-05T16:32:06.001Z,100740.50
2023-01-05T16:34:33.166Z,100739.00
2023-01-05T16:37:05.248Z,100740.75
2023-01-05T16:39:42.580Z,100740.50
2023-01-05T16:48:46.937Z,100739.56
2023-01-05T16:51:20.070Z,100736.13
2023-01-05T16:54:10.069Z,100725.69
2023-01-05T16:57:37.222Z,100731.44
2023-01-05T17:00:26.235Z,100729.84
2023-01-05T17:02:54.477Z,100735.66
2023-01-05T17:05:51.320Z,100735.28
2023-01-05T17:08:27.999Z,100739.59
2023-01-05T17:11:02.749Z,100743.31
2023-01-05T17:13:37.336Z,100744.66
2023-01-05T17:16:05.647Z,100734.50
2023-01-05T17:18:32.417Z,100741.91
2023-01-05T17:21:05.478Z,100740.50
2023-01-05T17:23:47.245Z,100739.09
2023-01-05T17:26:27.357Z,100737.34
2023-01-05T17:28:57.695Z,100737.19
2023-01-05T17:31:27.541Z,100741.84
2023-01-05T17:33:54.419Z,100739.00
2023-01-05T17:36:25.336Z,100742.94
2023-01-05T17:38:51.891Z,100739.19
2023-01-05T17:41:18.582Z,100734.41
2023-01-05T17:43:45.667Z,100736.59
2023-01-05T17:46:21.558Z,100738.13
2023-01-05T17:48:49.029Z,100740.41
2023-01-05T17:51:15.902Z,100740.25
2023-01-05T17:53:42.454Z,100747.78
2023-01-05T17:56:08.961Z,100741.63
2023-01-05T17:58:35.639Z,100744.25
2023-01-05T18:01:03.878Z,100751.28
2023-01-05T18:03:30.743Z,100744.31
2023-01-05T18:06:00.458Z,100749.66
2023-01-05T18:08:27.104Z,100749.09
2023-01-05T18:10:53.813Z,100745.22
2023-01-05T18:13:22.600Z,100748.19
2023-01-05T18:15:51.654Z,100746.41
2023-01-05T18:18:18.657Z,100744.84
2023-01-05T18:20:45.226Z,100740.44
2023-01-05T18:23:11.895Z,100739.91
2023-01-05T18:25:39.594Z,100734.09
2023-01-05T18:28:06.473Z,100731.56
2023-01-05T18:30:33.323Z,100727.22
2023-01-05T18:33:00.782Z,100733.50
2023-01-05T18:35:27.653Z,100724.47
2023-01-05T18:40:21.596Z,100714.06
2023-01-05T18:42:48.194Z,100716.53
2023-01-05T18:45:19.486Z,100713.44
2023-01-05T18:47:55.737Z,100716.94
2023-01-05T18:50:22.256Z,100716.94
2023-01-05T18:52:48.875Z,100719.94
2023-01-05T18:55:15.501Z,100716.47
2023-01-05T18:57:44.857Z,100716.28
2023-01-05T19:00:12.378Z,100721.69
2023-01-05T19:02:42.876Z,100720.06
2023-01-05T19:05:17.781Z,100710.84
2023-01-05T19:07:44.454Z,100714.91
2023-01-05T19:10:11.066Z,100725.63
2023-01-05T19:12:37.611Z,100722.66
2023-01-05T19:15:04.529Z,100719.97
2023-01-05T19:17:33.707Z,100725.94
2023-01-05T19:20:00.338Z,100721.84
2023-01-05T19:22:27.144Z,100719.34
2023-01-05T19:24:53.921Z,100714.91
2023-01-05T19:27:21.744Z,100718.78
2023-01-05T19:29:48.461Z,100718.06
2023-01-05T19:32:15.112Z,100711.78
2023-01-05T19:34:42.615Z,100710.53
2023-01-05T19:37:09.245Z,100709.38
2023-01-05T19:39:36.858Z,100709.91
2023-01-05T19:42:03.817Z,100715.09
2023-01-05T19:44:30.730Z,100713.34
2023-01-05T19:46:58.248Z,100712.34
2023-01-05T19:49:26.633Z,100707.50
2023-01-05T19:51:54.104Z,100703.31
2023-01-05T19:54:22.773Z,100704.66
2023-01-05T19:56:49.739Z,100706.25
2023-01-05T19:59:22.902Z,100705.41
2023-01-05T20:01:49.614Z,100708.34
2023-01-05T20:04:16.320Z,100708.50
2023-01-05T20:06:46.182Z,100698.22
2023-01-05T20:09:16.358Z,100706.28
2023-01-05T20:11:47.777Z,100707.13
2023-01-05T20:14:25.732Z,100706.06
2023-01-05T20:16:57.691Z,100691.53
2023-01-05T20:19:26.875Z,100699.25
2023-01-05T20:21:54.826Z,100694.59
2023-01-05T20:24:24.730Z,100699.72
2023-01-05T20:26:54.074Z,100687.91
2023-01-05T20:29:23.025Z,100685.19
2023-01-05T20:31:58.667Z,100694.63
2023-01-05T20:34:29.777Z,100686.31
2023-01-05T20:36:56.576Z,100688.50
2023-01-05T20:39:23.280Z,100688.03
2023-01-05T20:41:56.930Z,100682.53
2023-01-05T20:44:26.610Z,100691.81
2023-01-05T20:46:54.453Z,100691.41
2023-01-05T20:49:22.534Z,100686.56
2023-01-05T20:51:50.047Z,100684.84
2023-01-05T20:54:17.199Z,100686.41
2023-01-05T20:56:46.344Z,100685.16
2023-01-05T20:59:28.959Z,100686.88
2023-01-05T21:01:57.480Z,100687.66
2023-01-05T21:04:25.575Z,100688.72
2023-01-05T21:06:54.481Z,100696.16
2023-01-05T21:09:22.867Z,100693.75
2023-01-05T21:11:49.538Z,100694.41
2023-01-05T21:14:17.473Z,100694.06
2023-01-05T21:16:49.975Z,100686.91
2023-01-05T21:19:20.054Z,100703.34
2023-01-05T21:21:48.417Z,100702.72
2023-01-05T21:24:16.744Z,100702.56
2023-01-05T21:26:43.885Z,100706.94
2023-01-05T21:29:41.201Z,100708.00
2023-01-05T21:32:07.816Z,100700.34
2023-01-05T21:34:34.584Z,100706.53
2023-01-05T21:37:01.113Z,100698.22
2023-01-05T21:39:28.695Z,100705.78
2023-01-05T21:42:18.253Z,100698.16
2023-01-05T21:44:44.799Z,100693.59
2023-01-05T21:47:11.676Z,100696.41
2023-01-05T21:49:39.045Z,100691.47
2023-01-05T21:52:25.152Z,100694.28
2023-01-05T21:55:10.721Z,100684.75
2023-01-05T21:57:42.399Z,100685.19
2023-01-05T22:00:09.692Z,100687.66
2023-01-05T22:02:36.302Z,100681.50
2023-01-05T22:05:13.187Z,100676.84
2023-01-05T22:07:40.074Z,100673.38
2023-01-05T22:10:07.052Z,100669.88
2023-01-05T22:12:33.671Z,100665.84
2023-01-05T22:15:00.477Z,100660.88
2023-01-05T22:17:27.238Z,100664.91
2023-01-05T22:20:19.181Z,100662.63
2023-01-05T22:22:45.852Z,100660.50
2023-01-05T22:25:12.390Z,100663.31
2023-01-05T22:27:39.137Z,100662.88
2023-01-05T22:30:06.521Z,100664.31
2023-01-05T22:32:35.247Z,100659.38
2023-01-05T22:35:02.075Z,100650.25
2023-01-05T22:37:28.665Z,100645.56
2023-01-05T22:39:55.353Z,100657.00
2023-01-05T22:42:21.856Z,100652.19
2023-01-05T22:44:48.333Z,100656.00
2023-01-05T22:47:15.029Z,100654.09
2023-01-05T22:49:41.625Z,100659.41
2023-01-05T22:52:08.178Z,100657.06
2023-01-05T22:54:34.798Z,100662.72
2023-01-05T22:57:01.397Z,100651.63
2023-01-05T22:59:28.740Z,100655.81
